createdAt,value
2019-01-24T00:01:16.999Z,0.20
2019-01-24T00:03:46.937Z,-0.13
2019-01-24T00:06:17.182Z,-0.16
2019-01-24T00:08:46.907Z,-0.20
2019-01-24T00:11:17.333Z,-0.13
2019-01-24T00:13:48.109Z,-0.27
2019-01-24T00:16:38.345Z,-0.30
2019-01-24T00:19:09.118Z,-0.34
2019-01-24T00:21:39.746Z,-0.41
2019-01-24T00:24:10.087Z,-0.19
2019-01-24T00:29:29.965Z,-0.66
2019-01-24T00:31:59.657Z,-0.50
2019-01-24T00:34:30.095Z,-0.47
2019-01-24T00:37:00.094Z,-0.29
2019-01-24T00:39:30.683Z,-0.56
2019-01-24T00:42:00.793Z,-0.35
2019-01-24T00:44:31.240Z,-0.15
2019-01-24T00:47:01.275Z,-0.29
2019-01-24T00:49:31.722Z,-0.22
2019-01-24T00:52:02.020Z,-0.18
2019-01-24T00:54:32.281Z,-0.75
2019-01-24T00:57:02.617Z,-0.25
2019-01-24T00:59:33.004Z,-0.34
2019-01-24T01:02:02.830Z,-0.16
2019-01-24T01:04:32.852Z,-0.57
2019-01-24T01:07:04.507Z,-0.53
2019-01-24T01:09:34.136Z,-0.58
2019-01-24T01:12:03.596Z,-0.46
2019-01-24T01:14:53.849Z,-0.23
2019-01-24T01:17:24.825Z,-0.47
2019-01-24T01:19:54.838Z,-0.46
2019-01-24T01:22:25.916Z,-0.23
2019-01-24T01:24:56.166Z,-0.07
2019-01-24T01:27:26.134Z,-0.14
2019-01-24T01:29:56.021Z,-0.29
2019-01-24T01:32:26.414Z,-0.39
2019-01-24T01:34:56.033Z,-0.72
2019-01-24T01:37:24.910Z,-0.74
2019-01-24T01:39:54.812Z,-0.60
2019-01-24T01:42:45.529Z,-0.15
2019-01-24T01:45:18.122Z,-0.40
2019-01-24T01:47:48.673Z,-0.36
2019-01-24T01:50:24.001Z,-0.02
2019-01-24T01:52:54.994Z,-0.22
2019-01-24T01:55:24.959Z,-0.48
2019-01-24T01:57:55.900Z,-0.63
2019-01-24T02:00:26.607Z,-0.63
2019-01-24T02:02:57.251Z,-0.47
2019-01-24T02:05:28.198Z,-0.45
2019-01-24T02:07:58.985Z,-0.41
2019-01-24T02:10:28.963Z,-0.75
2019-01-24T02:13:00.059Z,-0.92
2019-01-24T02:15:28.780Z,-1.04
2019-01-24T02:17:57.457Z,-0.42
2019-01-24T02:20:27.579Z,-0.47
2019-01-24T02:22:57.837Z,-0.66
2019-01-24T02:25:27.709Z,-0.97
2019-01-24T02:27:57.845Z,-1.10
2019-01-24T02:30:29.143Z,-1.00
2019-01-24T02:32:59.482Z,-0.68
2019-01-24T02:35:29.552Z,-1.00
2019-01-24T02:37:59.870Z,-0.62
2019-01-24T02:40:30.080Z,-0.72
2019-01-24T02:43:00.355Z,-0.34
2019-01-24T02:45:30.863Z,-0.31
2019-01-24T02:48:01.052Z,-0.17
2019-01-24T02:50:31.136Z,-0.56
2019-01-24T02:53:01.277Z,-0.37
2019-01-24T02:55:32.462Z,-0.47
2019-01-24T02:58:02.695Z,-0.48
2019-01-24T03:00:32.843Z,-0.40
2019-01-24T03:03:03.196Z,-0.08
2019-01-24T03:05:33.764Z,-0.47
2019-01-24T03:08:04.167Z,-0.45
2019-01-24T03:10:34.655Z,-0.60
2019-01-24T03:13:04.856Z,-0.20
2019-01-24T03:15:35.403Z,-0.24
2019-01-24T03:18:05.503Z,-0.75
2019-01-24T03:20:35.935Z,-0.45
2019-01-24T03:23:06.065Z,-0.62
2019-01-24T03:25:36.453Z,-0.51
2019-01-24T03:28:07.849Z,-0.50
2019-01-24T03:30:37.984Z,-0.63
2019-01-24T03:33:08.509Z,-0.94
2019-01-24T03:35:38.524Z,-0.46
2019-01-24T03:38:10.086Z,-0.60
2019-01-24T03:40:40.895Z,-0.60
2019-01-24T03:43:11.068Z,-0.69
2019-01-24T03:45:41.679Z,-0.65
2019-01-24T03:48:11.705Z,-0.70
2019-01-24T03:50:41.862Z,-0.36
2019-01-24T03:53:11.702Z,-0.52
2019-01-24T03:55:44.603Z,-0.58
2019-01-24T03:58:15.251Z,-0.51
2019-01-24T04:00:45.010Z,-0.51
2019-01-24T04:03:15.177Z,-0.36
2019-01-24T04:05:45.113Z,-0.56
2019-01-24T04:08:16.205Z,-0.39
2019-01-24T04:10:46.895Z,-0.40
2019-01-24T04:13:17.115Z,-0.60
2019-01-24T04:15:48.231Z,-1.13
2019-01-24T04:18:18.466Z,-0.90
2019-01-24T04:20:48.208Z,-0.63
2019-01-24T04:23:18.602Z,-0.60
2019-01-24T04:25:51.682Z,-0.90
2019-01-24T04:28:22.818Z,-1.04
2019-01-24T04:30:52.925Z,-0.98
2019-01-24T04:33:23.459Z,-1.26
2019-01-24T04:35:53.572Z,-0.89
2019-01-24T04:38:23.936Z,-0.95
2019-01-24T04:40:54.288Z,-0.87
2019-01-24T04:43:24.198Z,-1.13
2019-01-24T04:45:55.060Z,-1.16
2019-01-24T04:48:25.168Z,-1.38
2019-01-24T04:50:54.966Z,-1.36
2019-01-24T04:53:24.833Z,-1.32
2019-01-24T04:55:54.907Z,-1.50
2019-01-24T04:58:25.038Z,-1.13
2019-01-24T05:00:54.624Z,-1.11
2019-01-24T05:03:22.953Z,-1.10
2019-01-24T05:05:53.346Z,-0.99
2019-01-24T05:08:24.608Z,-0.79
2019-01-24T05:10:54.196Z,-0.83
2019-01-24T05:13:23.590Z,-0.89
2019-01-24T05:15:52.445Z,-0.78
2019-01-24T05:18:22.524Z,-0.61
2019-01-24T05:20:52.597Z,-1.21
2019-01-24T05:23:22.419Z,-0.78
2019-01-24T05:25:52.706Z,-1.23
2019-01-24T05:28:22.647Z,-1.07
2019-01-24T05:30:52.847Z,-0.75
2019-01-24T05:33:22.854Z,-0.97
2019-01-24T05:35:53.097Z,-0.96
2019-01-24T05:38:23.228Z,-0.82
2019-01-24T05:40:54.916Z,-0.68
2019-01-24T05:43:25.044Z,-0.73
2019-01-24T05:45:55.619Z,-1.05
2019-01-24T05:48:25.793Z,-0.78
2019-01-24T05:50:55.777Z,-0.73
2019-01-24T05:53:25.983Z,-0.57
2019-01-24T05:55:56.131Z,-0.37
2019-01-24T05:58:25.865Z,-0.36
2019-01-24T06:00:55.963Z,-0.40
2019-01-24T06:03:26.157Z,-0.44
2019-01-24T06:05:56.300Z,-0.46
2019-01-24T06:08:26.677Z,-0.65
2019-01-24T06:10:56.513Z,-0.76
2019-01-24T06:13:27.079Z,-0.77
2019-01-24T06:15:57.348Z,-0.72
2019-01-24T06:18:26.929Z,-0.47
2019-01-24T06:20:56.949Z,-0.55
2019-01-24T06:23:27.032Z,-0.42
2019-01-24T06:25:57.077Z,-0.59
2019-01-24T06:28:27.457Z,-0.61
2019-01-24T06:30:59.001Z,-0.56
2019-01-24T06:33:29.475Z,-0.68
2019-01-24T06:35:59.507Z,-0.58
2019-01-24T06:38:29.616Z,-0.60
2019-01-24T06:40:59.613Z,-0.51
2019-01-24T06:43:29.485Z,-0.62
2019-01-24T06:45:59.318Z,-0.59
2019-01-24T06:48:29.943Z,-0.61
2019-01-24T06:51:02.666Z,-0.66
2019-01-24T06:53:33.254Z,-0.77
2019-01-24T06:56:01.563Z,-0.88
2019-01-24T06:58:31.864Z,-0.67
2019-01-24T07:01:02.148Z,-1.57
2019-01-24T07:03:32.387Z,-0.95
2019-01-24T07:06:02.466Z,-1.51
2019-01-24T07:08:31.809Z,-0.83
2019-01-24T07:11:01.992Z,-1.07
2019-01-24T07:13:52.729Z,-0.67
2019-01-24T07:16:22.970Z,-0.73
2019-01-24T07:19:13.301Z,-0.90
2019-01-24T07:21:42.063Z,-0.98
2019-01-24T07:24:32.666Z,-1.14
2019-01-24T07:27:02.542Z,-1.02
2019-01-24T07:29:33.103Z,-1.35
2019-01-24T07:32:03.330Z,-1.31
2019-01-24T07:34:32.922Z,-0.96
2019-01-24T07:37:05.855Z,-0.97
2019-01-24T07:39:36.102Z,-1.16
2019-01-24T07:42:06.424Z,-1.16
2019-01-24T07:44:36.113Z,-1.07
2019-01-24T07:47:06.675Z,-1.14
2019-01-24T07:49:39.921Z,-0.98
2019-01-24T07:52:10.082Z,-0.83
2019-01-24T07:54:40.319Z,-1.07
2019-01-24T07:57:10.546Z,-0.76
2019-01-24T07:59:40.595Z,-0.99
2019-01-24T08:02:12.408Z,-0.66
2019-01-24T08:04:42.878Z,-0.22
2019-01-24T08:07:11.944Z,-0.65
2019-01-24T08:09:42.006Z,-1.00
2019-01-24T08:12:45.692Z,-1.31
2019-01-24T08:15:17.522Z,-1.34
2019-01-24T08:17:47.378Z,-0.99
2019-01-24T08:20:18.831Z,-0.85
2019-01-24T08:22:48.802Z,-0.44
2019-01-24T08:25:18.453Z,-0.55
2019-01-24T08:27:48.613Z,-0.94
2019-01-24T08:30:21.880Z,-0.80
2019-01-24T08:32:50.881Z,-0.75
2019-01-24T08:35:20.340Z,-0.23
2019-01-24T08:37:53.218Z,0.10
2019-01-24T08:40:39.601Z,-0.19
2019-01-24T08:43:09.014Z,0.02
2019-01-24T08:45:38.865Z,-0.43
2019-01-24T08:48:10.305Z,-0.39
2019-01-24T08:50:41.091Z,-0.02
2019-01-24T08:53:09.985Z,-0.61
2019-01-24T08:55:40.226Z,-0.32
2019-01-24T08:58:10.161Z,-0.05
2019-01-24T09:00:40.992Z,-0.17
2019-01-24T09:03:12.543Z,-0.08
2019-01-24T09:05:42.498Z,-0.28
2019-01-24T09:08:13.305Z,0.11
2019-01-24T09:10:43.315Z,0.51
2019-01-24T09:13:13.308Z,0.85
2019-01-24T09:15:42.859Z,0.96
2019-01-24T09:18:12.723Z,0.79
2019-01-24T09:20:44.453Z,0.87
2019-01-24T09:23:14.567Z,0.38
2019-01-24T09:25:45.057Z,0.53
2019-01-24T09:28:16.189Z,0.66
2019-01-24T09:30:45.793Z,0.66
2019-01-24T09:33:15.822Z,1.00
2019-01-24T09:35:46.048Z,1.24
2019-01-24T09:38:14.982Z,1.15
2019-01-24T09:40:46.203Z,0.98
2019-01-24T09:43:18.792Z,0.77
2019-01-24T09:45:49.035Z,0.51
2019-01-24T09:48:23.155Z,0.89
2019-01-24T09:50:53.002Z,1.09
2019-01-24T09:53:23.429Z,1.57
2019-01-24T09:55:53.370Z,1.67
2019-01-24T09:58:23.560Z,1.79
2019-01-24T10:01:13.982Z,2.12
2019-01-24T10:03:44.322Z,2.12
2019-01-24T10:06:14.725Z,2.09
2019-01-24T10:08:44.887Z,2.43
2019-01-24T10:11:15.084Z,1.94
2019-01-24T10:13:45.177Z,2.05
2019-01-24T10:16:15.523Z,2.04
2019-01-24T10:18:43.848Z,1.95
2019-01-24T10:21:13.721Z,1.88
2019-01-24T10:23:44.173Z,2.43
2019-01-24T10:26:14.694Z,1.89
2019-01-24T10:28:44.720Z,2.29
2019-01-24T10:31:15.568Z,2.39
2019-01-24T10:33:45.638Z,1.86
2019-01-24T10:36:15.587Z,1.85
2019-01-24T10:38:46.049Z,1.31
2019-01-24T10:41:16.012Z,1.60
2019-01-24T10:43:46.402Z,1.26
2019-01-24T10:46:17.901Z,1.20
2019-01-24T10:48:48.921Z,0.84
2019-01-24T10:51:19.055Z,0.61
2019-01-24T10:53:49.506Z,0.93
2019-01-24T10:56:19.450Z,1.15
2019-01-24T10:58:50.037Z,1.34
2019-01-24T11:01:40.760Z,0.49
2019-01-24T11:04:11.193Z,0.38
2019-01-24T11:06:40.965Z,1.02
2019-01-24T11:09:11.391Z,1.22
2019-01-24T11:11:41.460Z,1.24
2019-01-24T11:14:11.835Z,1.12
2019-01-24T11:16:41.805Z,1.59
2019-01-24T11:19:12.357Z,1.63
2019-01-24T11:21:42.520Z,1.85
2019-01-24T11:24:12.598Z,1.93
2019-01-24T11:26:43.862Z,1.93
2019-01-24T11:29:14.054Z,2.22
2019-01-24T11:31:44.403Z,2.49
2019-01-24T11:34:16.002Z,2.23
2019-01-24T11:36:45.972Z,1.70
2019-01-24T11:39:16.436Z,1.52
2019-01-24T11:41:46.347Z,1.74
2019-01-24T11:44:16.671Z,1.51
2019-01-24T11:46:46.679Z,1.61
2019-01-24T11:49:15.002Z,1.61
2019-01-24T11:51:43.469Z,1.45
2019-01-24T11:54:13.722Z,0.92
2019-01-24T11:56:43.951Z,0.93
2019-01-24T11:59:14.564Z,1.16
2019-01-24T12:01:44.789Z,1.33
2019-01-24T12:04:13.833Z,1.36
2019-01-24T12:06:44.036Z,1.42
2019-01-24T12:09:13.843Z,1.39
2019-01-24T12:11:43.899Z,1.20
2019-01-24T12:14:13.846Z,1.08
2019-01-24T12:16:44.358Z,0.91
2019-01-24T12:19:13.133Z,1.07
2019-01-24T12:21:42.849Z,0.99
2019-01-24T12:24:12.347Z,0.80
2019-01-24T12:26:42.974Z,1.00
2019-01-24T12:29:11.525Z,0.89
2019-01-24T12:31:40.100Z,1.15
2019-01-24T12:34:09.829Z,1.19
2019-01-24T12:37:01.478Z,1.08
2019-01-24T12:39:31.150Z,0.92
2019-01-24T12:42:01.577Z,1.36
2019-01-24T12:44:31.470Z,1.42
2019-01-24T12:47:01.822Z,1.15
2019-01-24T12:49:31.256Z,0.96
2019-01-24T12:52:07.311Z,0.78
2019-01-24T12:54:36.939Z,0.79
2019-01-24T12:57:09.658Z,0.54
2019-01-24T12:59:39.325Z,0.89
2019-01-24T13:02:29.883Z,1.26
2019-01-24T13:04:59.739Z,1.26
2019-01-24T13:07:29.898Z,1.05
2019-01-24T13:10:00.408Z,1.33
2019-01-24T13:12:32.441Z,1.01
2019-01-24T13:15:02.255Z,1.11
2019-01-24T13:17:32.227Z,1.26
2019-01-24T13:20:02.631Z,1.58
2019-01-24T13:22:32.010Z,1.75
2019-01-24T13:25:01.995Z,1.86
2019-01-24T13:27:32.847Z,1.97
2019-01-24T13:30:03.313Z,1.99
2019-01-24T13:32:35.307Z,1.97
2019-01-24T13:35:05.639Z,2.11
2019-01-24T13:37:35.341Z,2.17
2019-01-24T13:40:05.491Z,2.17
2019-01-24T13:42:37.276Z,1.89
2019-01-24T13:45:10.373Z,1.62
2019-01-24T13:47:39.199Z,2.22
2019-01-24T13:50:11.862Z,2.01
2019-01-24T13:52:41.201Z,1.93
2019-01-24T13:55:11.273Z,1.75
2019-01-24T13:57:41.374Z,1.63
2019-01-24T14:00:24.361Z,1.95
2019-01-24T14:03:15.866Z,1.67
2019-01-24T14:05:46.091Z,1.53
2019-01-24T14:08:15.137Z,1.60
2019-01-24T14:10:45.410Z,1.85
2019-01-24T14:13:14.009Z,1.27
2019-01-24T14:15:44.126Z,1.44
2019-01-24T14:18:13.638Z,1.43
2019-01-24T14:20:43.699Z,1.56
2019-01-24T14:23:14.768Z,1.38
2019-01-24T14:25:44.653Z,1.38
2019-01-24T14:28:14.760Z,1.28
2019-01-24T14:31:04.494Z,1.12
2019-01-24T14:33:34.862Z,1.03
2019-01-24T14:36:05.211Z,1.28
2019-01-24T14:38:35.310Z,1.18
2019-01-24T14:41:05.555Z,1.21
2019-01-24T14:43:35.513Z,1.07
2019-01-24T14:46:04.499Z,1.24
2019-01-24T14:48:35.584Z,1.13
2019-01-24T14:51:05.619Z,1.23
2019-01-24T14:53:34.465Z,1.18
2019-01-24T14:56:04.719Z,0.93
2019-01-24T14:58:33.761Z,0.92
2019-01-24T15:01:05.608Z,0.53
2019-01-24T15:03:35.926Z,0.72
2019-01-24T15:06:05.560Z,0.78
2019-01-24T15:08:35.669Z,0.91
2019-01-24T15:11:05.211Z,0.44
2019-01-24T15:13:35.569Z,0.53
2019-01-24T15:16:26.079Z,0.49
2019-01-24T15:18:56.572Z,0.06
2019-01-24T15:21:27.647Z,0.21
2019-01-24T15:23:58.012Z,0.54
2019-01-24T15:26:27.495Z,0.81
2019-01-24T15:28:57.825Z,0.26
2019-01-24T15:31:27.446Z,0.47
2019-01-24T15:33:58.485Z,0.47
2019-01-24T15:36:28.593Z,0.10
2019-01-24T15:38:57.449Z,0.47
2019-01-24T15:41:27.729Z,0.10
2019-01-24T15:43:57.894Z,0.12
2019-01-24T15:46:27.871Z,0.23
2019-01-24T15:48:58.265Z,0.40
2019-01-24T15:51:28.130Z,0.91
2019-01-24T15:53:57.907Z,0.87
2019-01-24T15:56:29.104Z,1.03
2019-01-24T15:58:59.226Z,1.07
2019-01-24T16:01:30.582Z,1.18
2019-01-24T16:04:00.331Z,1.03
2019-01-24T16:06:30.387Z,0.69
2019-01-24T16:09:01.504Z,0.49
2019-01-24T16:11:30.827Z,0.81
2019-01-24T16:14:01.584Z,0.81
2019-01-24T16:16:31.682Z,0.26
2019-01-24T16:19:01.249Z,0.09
2019-01-24T16:21:33.253Z,0.26
2019-01-24T16:24:04.331Z,0.11
2019-01-24T16:26:37.469Z,0.04
2019-01-24T16:29:07.604Z,-0.32
2019-01-24T16:31:38.028Z,-0.15
2019-01-24T16:34:08.060Z,-0.08
2019-01-24T16:36:36.499Z,0.09
2019-01-24T16:39:08.628Z,0.42
2019-01-24T16:41:38.485Z,0.25
2019-01-24T16:44:08.512Z,0.26
2019-01-24T16:46:38.709Z,0.22
2019-01-24T16:49:08.808Z,0.24
2019-01-24T16:51:38.224Z,0.49
2019-01-24T16:54:08.079Z,0.19
2019-01-24T16:56:38.166Z,0.26
2019-01-24T16:59:08.383Z,0.62
2019-01-24T17:01:38.632Z,0.27
2019-01-24T17:04:10.849Z,0.13
2019-01-24T17:06:41.146Z,0.33
2019-01-24T17:09:12.310Z,0.52
2019-01-24T17:11:42.321Z,0.13
2019-01-24T17:14:12.242Z,0.41
2019-01-24T17:16:42.531Z,0.24
2019-01-24T17:19:12.804Z,0.17
2019-01-24T17:21:43.196Z,0.28
2019-01-24T17:24:13.434Z,0.49
2019-01-24T17:26:43.677Z,0.55
2019-01-24T17:29:13.720Z,0.20
2019-01-24T17:31:43.342Z,0.28
2019-01-24T17:34:13.342Z,-0.15
2019-01-24T17:36:45.659Z,0.32
2019-01-24T17:39:17.174Z,0.36
2019-01-24T17:41:46.040Z,0.39
2019-01-24T17:44:15.745Z,0.43
2019-01-24T17:46:51.520Z,0.26
2019-01-24T17:49:41.794Z,0.04
2019-01-24T17:52:10.630Z,0.15
2019-01-24T17:54:42.161Z,-0.09
2019-01-24T17:57:11.776Z,-0.20
2019-01-24T17:59:41.590Z,0.24
2019-01-24T18:02:11.322Z,0.05
2019-01-24T18:04:41.496Z,0.44
2019-01-24T18:07:11.249Z,0.35
2019-01-24T18:09:42.224Z,0.36
2019-01-24T18:12:14.980Z,0.42
2019-01-24T18:14:45.792Z,0.41
2019-01-24T18:17:16.208Z,0.51
2019-01-24T18:19:45.646Z,0.43
2019-01-24T18:22:15.850Z,0.54
2019-01-24T18:24:44.906Z,0.53
2019-01-24T18:27:15.788Z,0.18
2019-01-24T18:29:44.576Z,0.17
2019-01-24T18:32:14.635Z,0.45
2019-01-24T18:34:43.229Z,0.33
2019-01-24T18:37:13.605Z,0.18
2019-01-24T18:39:43.016Z,0.31
2019-01-24T18:42:13.176Z,0.39
2019-01-24T18:44:43.124Z,0.48
2019-01-24T18:47:13.003Z,0.38
2019-01-24T18:49:42.654Z,0.39
2019-01-24T18:52:13.921Z,0.38
2019-01-24T18:54:44.149Z,0.53
2019-01-24T18:57:14.469Z,0.49
2019-01-24T18:59:44.383Z,-0.15
2019-01-24T19:02:14.004Z,0.15
2019-01-24T19:04:43.654Z,0.22
2019-01-24T19:07:14.252Z,0.36
2019-01-24T19:09:44.530Z,0.47
2019-01-24T19:12:14.835Z,0.60
2019-01-24T19:14:44.677Z,0.63
2019-01-24T19:17:13.558Z,0.43
2019-01-24T19:19:42.617Z,0.49
2019-01-24T19:22:11.244Z,0.59
2019-01-24T19:24:39.766Z,0.53
2019-01-24T19:27:09.236Z,0.36
2019-01-24T19:29:38.948Z,-0.14
2019-01-24T19:32:08.091Z,0.07
2019-01-24T19:34:38.127Z,-0.06
2019-01-24T19:37:06.533Z,0.19
2019-01-24T19:39:36.791Z,0.08
2019-01-24T19:42:06.230Z,-0.14
2019-01-24T19:44:35.104Z,-0.17
2019-01-24T19:47:05.427Z,-1.03
2019-01-24T19:49:35.419Z,-0.21
2019-01-24T19:52:04.569Z,-0.05
2019-01-24T19:54:34.551Z,-0.10
2019-01-24T19:57:03.194Z,-0.13
2019-01-24T19:59:32.526Z,-0.71
2019-01-24T20:02:01.482Z,-0.27
2019-01-24T20:04:30.138Z,-0.19
2019-01-24T20:07:00.032Z,-0.19
2019-01-24T20:09:28.861Z,-0.06
2019-01-24T20:12:03.186Z,0.02
2019-01-24T20:14:34.450Z,0.03
2019-01-24T20:17:04.489Z,0.02
2019-01-24T20:19:34.190Z,0.07
2019-01-24T20:22:02.680Z,0.03
2019-01-24T20:24:31.897Z,0.10
2019-01-24T20:27:00.868Z,0.14
2019-01-24T20:29:29.650Z,0.10
2019-01-24T20:31:58.134Z,0.07
2019-01-24T20:34:26.989Z,0.24
2019-01-24T20:36:56.031Z,0.13
2019-01-24T20:39:25.782Z,0.22
2019-01-24T20:41:54.858Z,0.29
2019-01-24T20:44:24.682Z,0.21
2019-01-24T20:46:54.976Z,0.17
2019-01-24T20:49:24.118Z,0.22
2019-01-24T20:51:54.007Z,0.32
2019-01-24T20:54:24.392Z,0.25
2019-01-24T20:56:54.393Z,0.17
2019-01-24T20:59:25.639Z,0.22
2019-01-24T21:01:55.904Z,0.10
2019-01-24T21:04:27.159Z,0.00
2019-01-24T21:06:57.104Z,-0.03
2019-01-24T21:09:27.459Z,-0.30
2019-01-24T21:12:00.832Z,-0.16
2019-01-24T21:14:29.974Z,-0.17
2019-01-24T21:16:59.963Z,-0.09
2019-01-24T21:19:29.412Z,-0.20
2019-01-24T21:21:59.489Z,-0.12
2019-01-24T21:24:29.413Z,-0.19
2019-01-24T21:26:59.389Z,-0.21
2019-01-24T21:29:29.386Z,-0.04
2019-01-24T21:31:59.165Z,0.04
2019-01-24T21:34:29.166Z,-0.05
2019-01-24T21:37:00.660Z,0.03
2019-01-24T21:39:30.002Z,0.07
2019-01-24T21:42:04.732Z,-0.02
2019-01-24T21:44:34.903Z,0.08
2019-01-24T21:47:06.110Z,0.15
2019-01-24T21:49:36.339Z,0.30
2019-01-24T21:52:05.716Z,-0.09
2019-01-24T21:54:35.736Z,-0.04
2019-01-24T21:57:06.223Z,0.10
2019-01-24T21:59:37.052Z,-0.22
2019-01-24T22:02:07.114Z,0.02
2019-01-24T22:04:37.626Z,0.05
2019-01-24T22:07:07.427Z,0.04
2019-01-24T22:09:38.297Z,0.22
2019-01-24T22:12:07.722Z,0.28
2019-01-24T22:14:38.165Z,0.38
2019-01-24T22:17:07.899Z,0.42
2019-01-24T22:19:37.688Z,0.32
2019-01-24T22:22:07.682Z,0.14
2019-01-24T22:24:37.739Z,0.33
2019-01-24T22:27:07.495Z,0.33
2019-01-24T22:29:38.136Z,0.21
2019-01-24T22:32:08.117Z,0.23
2019-01-24T22:34:40.823Z,0.35
2019-01-24T22:37:10.946Z,0.22
2019-01-24T22:39:43.036Z,0.26
2019-01-24T22:42:14.554Z,0.37
2019-01-24T22:44:44.999Z,0.39
2019-01-24T22:47:15.192Z,0.28
2019-01-24T22:49:46.297Z,0.39
2019-01-24T22:52:16.400Z,-0.08
2019-01-24T22:54:48.479Z,0.09
2019-01-24T22:57:18.871Z,0.17
2019-01-24T22:59:47.287Z,0.13
2019-01-24T23:02:18.616Z,-0.28
2019-01-24T23:04:48.582Z,-0.32
2019-01-24T23:07:18.927Z,-0.12
2019-01-24T23:09:50.433Z,-1.25
2019-01-24T23:12:18.893Z,0.05
2019-01-24T23:14:48.666Z,0.02
2019-01-24T23:17:18.527Z,-0.17
2019-01-24T23:19:48.107Z,-0.03
2019-01-24T23:22:18.469Z,-0.23
2019-01-24T23:24:48.418Z,-0.12
2019-01-24T23:27:18.303Z,-0.22
2019-01-24T23:29:50.647Z,-0.22
2019-01-24T23:32:21.056Z,-0.22
2019-01-24T23:34:52.025Z,-0.08
2019-01-24T23:37:23.398Z,-0.08
2019-01-24T23:39:54.610Z,-0.06
2019-01-24T23:42:24.348Z,-0.18
2019-01-24T23:44:56.683Z,0.11
2019-01-24T23:47:28.080Z,0.22
2019-01-24T23:49:56.760Z,0.10
2019-01-24T23:52:25.669Z,0.03
2019-01-24T23:54:55.887Z,0.07
2019-01-24T23:57:26.067Z,0.24
2019-01-24T23:59:56.414Z,0.23
